Rockfall, Connecticut
Current Conditions -  °F | °C
As of 6:53 AM on Friday 24 Oct 2014 (Local Time) from KMMK Reporting Station
Light Rain Light Rain  
Wind Chill: 50°   Ceiling: 3300
Heat Index: 50°   Visibility: 10mi
Dew Point: 42°   Wind: 9mph
Humidity: 74%   Direction: 340°NNW
Pressure: 29.75"   Gusts: NA
Location:  41.53°N, 72.7°W
Report Text: KMMK 241053Z AUTO 34008KT 10SM -RA OVC033 10/06 A2975 RMK AO2 RAB49 SLP075 P0000 T01000056 TSNO
Loading
Personal Weather Stations






























Interactive Weather Map New forecast layout! Learn more

10-Day Weather Forecast

Advertisements
Track Severe Weather on mobile